Time;durP1;ratioP1;P1;durP2;ratioP2;P2;SDS_P1;SDS_P2;PMS_P1;PMS_P2;Temp;Humidity;BMP_temperature;BMP_pressure;BME280_temperature;BME280_humidity;BME280_pressure;Samples;Min_cycle;Max_cycle;Signal;HPM_P1;HPM_P2
2023/12/01 00:00:24;;;;;;;3.80;2.45;;;;;;;20.31;34.55;99392.97;2082619;28;20038;-75
2023/12/01 00:01:26;;;;;;;3.92;2.63;;;;;;;20.31;34.48;99398.44;2091295;28;21002;-76
2023/12/01 00:02:28;;;;;;;5.45;2.95;;;;;;;20.29;34.62;99403.47;2099258;28;20033;-77
2023/12/01 00:03:30;;;;;;;6.53;2.80;;;;;;;20.27;34.59;99401.13;2099474;28;21039;-77
2023/12/01 00:04:31;;;;;;;4.15;2.70;;;;;;;20.28;34.48;99401.91;2099261;28;20040;-78
2023/12/01 00:05:33;;;;;;;4.57;2.90;;;;;;;20.28;34.49;99399.16;2099099;28;20075;-78
2023/12/01 00:06:34;;;;;;;4.70;2.70;;;;;;;20.28;34.50;99401.91;2092562;28;20037;-72
2023/12/01 00:07:37;;;;;;;5.82;3.05;;;;;;;20.27;34.54;99394.84;2099168;28;20172;-73
2023/12/01 00:08:39;;;;;;;3.65;2.33;;;;;;;20.28;34.63;99401.91;2099586;28;20838;-78
2023/12/01 00:09:41;;;;;;;4.20;2.47;;;;;;;20.27;34.59;99400.31;2107785;28;20084;-79
2023/12/01 00:10:43;;;;;;;4.55;2.95;;;;;;;20.26;34.46;99398.75;2107625;28;20044;-79
2023/12/01 00:11:45;;;;;;;4.45;2.50;;;;;;;20.27;34.47;99397.56;2107690;28;20122;-77
2023/12/01 00:12:47;;;;;;;4.30;2.58;;;;;;;20.27;34.42;99394.84;2099429;28;20942;-79
2023/12/01 00:13:49;;;;;;;3.83;2.60;;;;;;;20.26;34.51;99394.06;2108288;27;20039;-78
2023/12/01 00:14:51;;;;;;;6.22;2.65;;;;;;;20.26;34.53;99393.28;2124465;27;20031;-80
2023/12/01 00:15:53;;;;;;;4.35;2.38;;;;;;;20.25;34.37;99397.19;2116177;28;20039;-80
2023/12/01 00:16:54;;;;;;;4.40;2.45;;;;;;;20.25;34.51;99392.50;2099204;28;20033;-80
2023/12/01 00:17:56;;;;;;;4.82;2.42;;;;;;;20.25;34.30;99391.72;2107626;28;20035;-80
2023/12/01 00:18:58;;;;;;;4.45;2.25;;;;;;;20.25;34.50;99391.72;2098929;28;20163;-79
2023/12/01 00:19:59;;;;;;;3.38;2.55;;;;;;;20.25;34.42;99397.19;2099712;28;20025;-79
2023/12/01 00:21:04;;;;;;;4.15;2.50;;;;;;;20.25;34.49;99386.25;2107609;28;20033;-79
2023/12/01 00:22:07;;;;;;;3.58;2.20;;;;;;;20.25;34.48;99383.53;2108042;28;20040;-82
2023/12/01 00:23:08;;;;;;;3.83;2.38;;;;;;;20.24;34.44;99384.69;2107899;28;20033;-81
2023/12/01 00:24:11;;;;;;;3.58;2.30;;;;;;;20.24;34.40;99376.47;2099466;28;20087;-80
2023/12/01 00:25:12;;;;;;;4.35;2.45;;;;;;;20.24;34.51;99379.22;2099500;28;20036;-80
2023/12/01 00:26:14;;;;;;;4.65;2.47;;;;;;;20.24;34.55;99382.75;2099376;28;20044;-81
2023/12/01 00:27:21;;;;;;;3.42;2.33;;;;;;;20.24;34.50;99381.94;2108257;28;21000;-81
2023/12/01 00:28:22;;;;;;;3.03;2.17;;;;;;;20.23;34.47;99383.09;2100162;28;20142;-81
2023/12/01 00:29:24;;;;;;;5.38;2.28;;;;;;;20.22;34.51;99376.09;2098873;28;20035;-79
2023/12/01 00:30:29;;;;;;;3.83;2.20;;;;;;;20.23;34.41;99372.19;2091168;28;20871;-82
2023/12/01 00:31:31;;;;;;;3.90;2.53;;;;;;;20.23;34.43;99377.66;2100191;28;20029;-81
2023/12/01 00:32:32;;;;;;;4.88;2.10;;;;;;;20.22;34.41;99381.56;2107584;28;20036;-81
2023/12/01 00:33:34;;;;;;;4.43;2.10;;;;;;;20.22;34.39;99376.88;2107341;28;20024;-81
2023/12/01 00:34:36;;;;;;;5.53;2.20;;;;;;;20.22;34.42;99381.56;2099384;28;20099;-80
2023/12/01 00:35:38;;;;;;;4.38;1.92;;;;;;;20.22;34.27;99373.38;2108755;28;20028;-80
2023/12/01 00:36:42;;;;;;;4.57;2.22;;;;;;;20.20;34.27;99367.47;2116010;28;20042;-80
2023/12/01 00:37:44;;;;;;;3.83;2.45;;;;;;;20.21;34.53;99369.84;2107965;28;21039;-79
2023/12/01 00:38:47;;;;;;;4.15;2.10;;;;;;;20.20;34.40;99371.00;2116248;27;20124;-81
2023/12/01 00:39:49;;;;;;;3.38;2.05;;;;;;;20.20;34.50;99372.94;2124372;27;20229;-81
2023/12/01 00:40:52;;;;;;;3.92;2.20;;;;;;;20.21;34.53;99369.03;2107832;28;20242;-78
2023/12/01 00:41:53;;;;;;;3.20;2.10;;;;;;;20.20;34.48;99378.41;2099130;28;20033;-80
2023/12/01 00:42:57;;;;;;;5.43;2.30;;;;;;;20.19;34.53;99374.09;2099177;28;20033;-82
2023/12/01 00:43:59;;;;;;;3.35;2.00;;;;;;;20.19;34.44;99371.38;2091682;28;20163;-81
2023/12/01 00:45:05;;;;;;;3.40;2.15;;;;;;;20.19;34.46;99376.84;2082487;28;20157;-81
2023/12/01 00:46:07;;;;;;;3.85;2.03;;;;;;;20.18;34.45;99380.72;2092244;28;20812;-81
2023/12/01 00:47:09;;;;;;;3.65;2.20;;;;;;;20.19;34.51;99382.28;2082657;28;20037;-81
2023/12/01 00:48:10;;;;;;;3.20;2.33;;;;;;;20.17;34.60;99369.00;2099437;27;20850;-81
2023/12/01 00:49:14;;;;;;;3.83;2.30;;;;;;;20.18;34.27;99375.28;2115875;28;20028;-79
2023/12/01 00:50:16;;;;;;;3.05;2.10;;;;;;;20.17;34.38;99379.91;2098358;28;20029;-79
2023/12/01 00:51:18;;;;;;;4.13;2.20;;;;;;;20.18;34.58;99388.91;2099178;28;20066;-80
2023/12/01 00:52:20;;;;;;;4.05;2.35;;;;;;;20.16;34.51;99380.31;2107297;28;20029;-80
2023/12/01 00:53:22;;;;;;;6.05;2.20;;;;;;;20.17;34.48;99381.88;2099234;28;20087;-80
2023/12/01 00:54:24;;;;;;;3.65;2.40;;;;;;;20.16;34.46;99378.34;2099277;28;20159;-79
2023/12/01 00:55:25;;;;;;;2.90;2.20;;;;;;;20.16;34.35;99374.84;2107754;28;20024;-80
2023/12/01 00:56:28;;;;;;;3.65;2.20;;;;;;;20.16;34.37;99374.84;2115817;27;20032;-80
2023/12/01 00:57:29;;;;;;;3.38;2.20;;;;;;;20.16;34.53;99369.38;2106955;28;20050;-79
2023/12/01 00:58:31;;;;;;;3.97;2.28;;;;;;;20.15;34.35;99371.34;2099127;28;20122;-80
2023/12/01 00:59:32;;;;;;;3.63;2.40;;;;;;;20.14;34.31;99373.28;2098888;28;20037;-77
2023/12/01 01:00:33;;;;;;;5.13;2.40;;;;;;;20.13;34.45;99371.69;2090370;28;20037;-80
2023/12/01 01:01:35;;;;;;;4.93;2.33;;;;;;;20.13;34.70;99363.50;2082373;28;20509;-80
2023/12/01 01:02:37;;;;;;;3.15;2.20;;;;;;;20.12;34.45;99367.41;2099058;28;20167;-79
2023/12/01 01:03:41;;;;;;;3.88;2.13;;;;;;;20.11;34.40;99368.56;2097665;28;20033;-80
2023/12/01 01:04:43;;;;;;;3.03;1.80;;;;;;;20.12;34.28;99363.88;2098294;28;20052;-79
2023/12/01 01:05:44;;;;;;;3.65;2.30;;;;;;;20.11;34.29;99365.84;2106678;28;20032;-79
2023/12/01 01:06:49;;;;;;;3.63;2.00;;;;;;;20.10;34.47;99372.44;2114877;27;20109;-77
2023/12/01 01:07:51;;;;;;;3.22;2.00;;;;;;;20.10;34.39;99369.69;2122810;27;20261;-80
2023/12/01 01:08:53;;;;;;;4.07;2.28;;;;;;;20.11;34.40;99365.03;2106314;28;20037;-80
2023/12/01 01:09:55;;;;;;;3.47;2.05;;;;;;;20.09;34.15;99364.63;2115221;27;20032;-79
2023/12/01 01:10:56;;;;;;;3.50;2.10;;;;;;;20.09;34.31;99368.16;2097778;28;20942;-75
2023/12/01 01:12:01;;;;;;;3.80;2.25;;;;;;;20.08;34.33;99369.31;2081677;28;20080;-77
2023/12/01 01:13:03;;;;;;;2.47;1.90;;;;;;;20.07;34.27;99367.72;2091020;28;20021;-77
2023/12/01 01:14:05;;;;;;;2.92;2.10;;;;;;;20.07;34.31;99375.91;2106604;28;20218;-77
2023/12/01 01:15:10;;;;;;;3.05;1.80;;;;;;;20.08;34.47;99373.97;2097965;28;21140;-78
2023/12/01 01:16:12;;;;;;;2.15;1.90;;;;;;;20.08;34.49;99368.50;2089820;28;20125;-76
2023/12/01 01:17:14;;;;;;;2.70;1.85;;;;;;;20.06;34.30;99379.03;2089532;28;20041;-77
2023/12/01 01:18:15;;;;;;;2.45;1.77;;;;;;;20.06;34.28;99371.63;2089811;28;20128;-78
2023/12/01 01:19:17;;;;;;;3.40;1.90;;;;;;;20.05;34.33;99377.44;2089616;28;20931;-79
2023/12/01 01:20:19;;;;;;;3.75;1.95;;;;;;;20.05;34.41;99371.97;2098421;28;20072;-79
2023/12/01 01:21:20;;;;;;;3.75;2.03;;;;;;;20.03;34.39;99369.63;2097691;28;20025;-78
2023/12/01 01:22:22;;;;;;;2.80;2.05;;;;;;;20.04;34.36;99371.19;2081703;28;20143;-78
2023/12/01 01:23:24;;;;;;;3.58;1.88;;;;;;;20.04;34.36;99382.09;2097806;28;20033;-77
2023/12/01 01:24:25;;;;;;;4.45;2.00;;;;;;;20.03;34.31;99369.63;2106480;28;20028;-77
2023/12/01 01:25:27;;;;;;;3.88;2.17;;;;;;;20.01;34.22;99363.75;2114503;28;20101;-78
2023/12/01 01:26:31;;;;;;;3.55;2.13;;;;;;;20.01;34.28;99361.00;2098680;28;20167;-78
2023/12/01 01:27:33;;;;;;;3.95;2.00;;;;;;;20.00;34.33;99364.91;2090170;28;20034;-78
2023/12/01 01:28:42;;;;;;;3.47;1.80;;;;;;;19.98;34.15;99364.47;2098262;28;21005;-79
2023/12/01 01:29:44;;;;;;;4.15;2.03;;;;;;;19.99;34.24;99360.63;2100167;28;20037;-78
2023/12/01 01:30:49;;;;;;;2.97;2.00;;;;;;;19.98;34.10;99364.47;2114900;28;20028;-79
2023/12/01 01:31:51;;;;;;;2.05;1.80;;;;;;;19.97;34.22;99360.19;2105651;28;20993;-79
2023/12/01 01:32:52;;;;;;;2.67;1.88;;;;;;;19.97;34.18;99365.66;2098033;28;20036;-79
2023/12/01 01:33:55;;;;;;;2.45;1.70;;;;;;;19.96;34.23;99355.91;2114828;28;20135;-80
2023/12/01 01:34:57;;;;;;;2.47;1.88;;;;;;;19.96;34.17;99360.59;2107338;28;20052;-80
2023/12/01 01:35:58;;;;;;;3.65;2.30;;;;;;;19.95;34.18;99351.59;2106864;28;20037;-79
2023/12/01 01:37:00;;;;;;;3.30;2.05;;;;;;;19.94;34.16;99358.22;2090903;28;20033;-78
2023/12/01 01:38:02;;;;;;;3.30;1.83;;;;;;;19.93;34.15;99362.09;2099041;28;20033;-78
2023/12/01 01:39:04;;;;;;;3.03;1.73;;;;;;;19.94;34.10;99360.94;2107245;28;20045;-79
2023/12/01 01:40:11;;;;;;;2.53;1.60;;;;;;;19.92;34.15;99357.78;2107329;28;20122;-78
2023/12/01 01:41:15;;;;;;;3.55;1.90;;;;;;;19.91;34.12;99351.53;2108217;28;20032;-78
2023/12/01 01:42:16;;;;;;;2.60;1.77;;;;;;;19.90;34.18;99355.44;2099021;28;20044;-78
2023/12/01 01:43:24;;;;;;;2.55;1.63;;;;;;;19.90;34.21;99357.38;2107285;27;21072;-79
2023/12/01 01:44:25;;;;;;;2.67;1.92;;;;;;;19.89;34.23;99358.53;2122990;27;20178;-78
2023/12/01 01:45:27;;;;;;;2.20;1.55;;;;;;;19.90;34.03;99360.13;2098590;28;20040;-79
2023/12/01 01:46:31;;;;;;;2.70;1.60;;;;;;;19.89;34.06;99358.53;2082155;28;20026;-78
2023/12/01 01:47:35;;;;;;;2.40;1.70;;;;;;;19.86;34.02;99362.81;2109094;27;20036;-78
2023/12/01 01:48:38;;;;;;;2.92;2.08;;;;;;;19.88;34.06;99357.75;2106600;28;20794;-78
2023/12/01 01:49:40;;;;;;;3.08;1.70;;;;;;;19.88;33.90;99359.69;2107698;27;20070;-78
2023/12/01 01:50:41;;;;;;;2.38;1.75;;;;;;;19.87;33.97;99360.84;2115202;28;20131;-77
2023/12/01 01:51:44;;;;;;;2.65;1.70;;;;;;;19.86;34.03;99365.53;2106894;28;20913;-77
2023/12/01 01:52:46;;;;;;;2.70;1.88;;;;;;;19.87;34.00;99358.13;2098420;28;20036;-78
2023/12/01 01:53:48;;;;;;;2.92;1.88;;;;;;;19.86;34.11;99362.00;2099035;28;20063;-78
2023/12/01 01:54:51;;;;;;;3.25;1.92;;;;;;;19.87;34.18;99369.03;2106498;28;20181;-76
2023/12/01 01:55:58;;;;;;;3.35;1.70;;;;;;;19.84;34.14;99362.38;2116140;27;20170;-77
2023/12/01 01:57:03;;;;;;;2.33;1.73;;;;;;;19.86;34.15;99362.00;2122699;27;20081;-75
2023/12/01 01:58:04;;;;;;;2.92;1.77;;;;;;;19.86;34.21;99364.72;2098521;28;20827;-76
2023/12/01 01:59:06;;;;;;;2.65;1.50;;;;;;;19.85;34.27;99363.16;2098799;27;20120;-76
2023/12/01 02:00:12;;;;;;;2.35;1.70;;;;;;;19.85;34.36;99363.16;2115047;28;20028;-78
2023/12/01 02:01:15;;;;;;;2.53;1.70;;;;;;;19.83;34.28;99365.44;2107640;28;20029;-77
2023/12/01 02:02:17;;;;;;;2.80;1.90;;;;;;;19.84;34.29;99358.88;2115151;28;20042;-76
2023/12/01 02:03:20;;;;;;;1.90;1.55;;;;;;;19.82;34.31;99356.50;2115211;28;20039;-76
2023/12/01 02:04:21;;;;;;;2.17;1.38;;;;;;;19.82;34.34;99353.75;2098779;28;20041;-76
2023/12/01 02:05:23;;;;;;;1.92;1.33;;;;;;;19.84;34.26;99356.13;2097636;28;20056;-76
2023/12/01 02:06:32;;;;;;;2.38;1.60;;;;;;;19.83;34.32;99366.25;2091465;28;20029;-75
2023/12/01 02:07:34;;;;;;;2.40;1.50;;;;;;;19.81;34.24;99356.88;2090919;28;20049;-75
2023/12/01 02:08:36;;;;;;;2.55;1.55;;;;;;;19.82;34.22;99359.22;2090358;28;20902;-75
2023/12/01 02:09:38;;;;;;;3.45;1.40;;;;;;;19.82;34.22;99359.22;2091163;28;20038;-76
2023/12/01 02:10:40;;;;;;;2.40;1.70;;;;;;;19.82;34.17;99363.88;2090192;28;20030;-75
2023/12/01 02:11:43;;;;;;;2.00;1.63;;;;;;;19.82;34.23;99366.63;2081926;28;20042;-75
2023/12/01 02:12:51;;;;;;;1.95;1.40;;;;;;;19.81;34.21;99362.31;2083028;28;21022;-76
2023/12/01 02:13:53;;;;;;;2.65;1.60;;;;;;;19.80;34.14;99361.56;2091105;28;20034;-76
2023/12/01 02:14:55;;;;;;;2.15;1.30;;;;;;;19.80;34.29;99367.00;2098411;28;20883;-76
2023/12/01 02:15:56;;;;;;;2.15;1.60;;;;;;;19.80;34.22;99361.56;2090817;28;20159;-80
2023/12/01 02:16:58;;;;;;;3.38;1.58;;;;;;;19.80;34.21;99363.50;2100208;28;20902;-78
2023/12/01 02:17:59;;;;;;;2.28;1.30;;;;;;;19.80;34.09;99360.75;2099721;28;20028;-79
2023/12/01 02:19:01;;;;;;;2.53;1.70;;;;;;;19.80;34.07;99355.31;2100168;28;20143;-79
2023/12/01 02:20:05;;;;;;;2.85;1.73;;;;;;;19.80;34.09;99363.50;2091311;28;20038;-78
2023/12/01 02:21:09;;;;;;;2.95;1.70;;;;;;;19.79;34.22;99370.09;2077581;28;21003;-78
2023/12/01 02:22:11;;;;;;;2.50;1.75;;;;;;;19.78;33.98;99368.53;2091632;28;20040;-78
2023/12/01 02:23:12;;;;;;;1.90;1.65;;;;;;;19.79;34.16;99365.41;2091763;28;20151;-79
2023/12/01 02:24:15;;;;;;;3.22;1.70;;;;;;;19.78;34.16;99358.38;2091390;28;20121;-80
2023/12/01 02:25:18;;;;;;;4.60;1.60;;;;;;;19.79;34.22;99364.63;2091899;28;20793;-77
2023/12/01 02:26:19;;;;;;;3.88;1.63;;;;;;;19.78;34.15;99363.06;2075758;28;20836;-77
2023/12/01 02:27:21;;;;;;;2.30;1.50;;;;;;;19.78;34.15;99363.06;2091368;28;20842;-76
2023/12/01 02:28:22;;;;;;;2.42;1.60;;;;;;;19.77;34.23;99364.22;2083382;28;20116;-76
2023/12/01 02:29:24;;;;;;;2.35;1.42;;;;;;;19.78;34.16;99368.53;2099924;28;20171;-76
2023/12/01 02:30:26;;;;;;;2.38;1.70;;;;;;;19.77;34.17;99367.75;2108178;28;20811;-76
2023/12/01 02:31:28;;;;;;;2.30;1.60;;;;;;;19.78;34.13;99360.34;2091704;28;20907;-74
2023/12/01 02:32:29;;;;;;;3.38;1.80;;;;;;;19.77;34.21;99356.06;2091348;28;20158;-73
2023/12/01 02:33:30;;;;;;;2.22;1.40;;;;;;;19.75;34.04;99359.13;2091647;28;20158;-74
2023/12/01 02:34:32;;;;;;;2.67;1.50;;;;;;;19.76;34.18;99357.97;2091386;28;20084;-74
2023/12/01 02:35:38;;;;;;;2.10;1.40;;;;;;;19.76;34.15;99363.41;2100076;28;20081;-74
2023/12/01 02:36:40;;;;;;;2.45;1.70;;;;;;;19.75;34.34;99352.91;2108131;28;20032;-74
2023/12/01 02:37:41;;;;;;;2.65;1.70;;;;;;;19.76;34.16;99357.19;2091375;28;20076;-74
2023/12/01 02:38:43;;;;;;;2.53;1.67;;;;;;;19.75;34.25;99355.63;2099748;28;20839;-74
2023/12/01 02:39:45;;;;;;;1.80;1.48;;;;;;;19.74;34.06;99346.66;2099852;28;20029;-75
2023/12/01 02:40:50;;;;;;;3.28;1.48;;;;;;;19.74;34.23;99346.66;2091579;28;20033;-74
2023/12/01 02:41:52;;;;;;;2.85;1.50;;;;;;;19.75;34.28;99347.44;2100629;28;20112;-73
2023/12/01 02:42:56;;;;;;;1.90;1.52;;;;;;;19.74;34.29;99343.16;2108305;28;20032;-77
2023/12/01 02:43:58;;;;;;;1.92;1.40;;;;;;;19.75;34.37;99352.91;2107962;28;20985;-77
2023/12/01 02:45:00;;;;;;;1.95;1.58;;;;;;;19.75;34.23;99342.00;2099715;28;20047;-77
2023/12/01 02:46:02;;;;;;;2.65;1.75;;;;;;;19.74;34.37;99343.16;2099736;28;21035;-79
2023/12/01 02:47:04;;;;;;;2.72;1.52;;;;;;;19.75;34.31;99342.00;2083176;28;20114;-78
2023/12/01 02:48:06;;;;;;;2.20;1.55;;;;;;;19.76;34.29;99343.53;2091491;28;20848;-76
2023/12/01 02:49:08;;;;;;;1.92;1.55;;;;;;;19.75;34.28;99342.00;2099685;28;20036;-76
2023/12/01 02:50:14;;;;;;;1.67;1.10;;;;;;;19.75;34.34;99344.72;2091584;28;20044;-76
2023/12/01 02:51:18;;;;;;;2.13;1.55;;;;;;;19.75;34.46;99348.22;2092819;28;20072;-77
2023/12/01 02:52:19;;;;;;;1.80;1.27;;;;;;;19.75;34.40;99345.50;2099711;28;20041;-77
2023/12/01 02:53:21;;;;;;;2.58;1.40;;;;;;;19.75;34.41;99342.00;2108193;28;20039;-77
2023/12/01 02:54:23;;;;;;;2.05;1.40;;;;;;;19.76;34.50;99349.00;2099612;28;20098;-75
2023/12/01 02:55:24;;;;;;;2.28;1.52;;;;;;;19.75;34.37;99347.44;2091268;28;20034;-75
2023/12/01 02:56:26;;;;;;;2.00;1.50;;;;;;;19.74;34.44;99343.94;2091366;28;20029;-75
2023/12/01 02:57:28;;;;;;;3.72;1.58;;;;;;;19.75;34.36;99336.53;2099370;28;20041;-75
2023/12/01 02:58:32;;;;;;;2.15;1.40;;;;;;;19.76;34.41;99343.53;2099664;28;21035;-74
2023/12/01 02:59:34;;;;;;;2.25;1.70;;;;;;;19.75;34.34;99342.00;2091047;28;20153;-72
2023/12/01 03:00:36;;;;;;;1.85;1.60;;;;;;;19.75;34.34;99350.94;2100451;28;20043;-76
2023/12/01 03:01:38;;;;;;;1.55;1.20;;;;;;;19.74;34.41;99340.41;2099211;28;20048;-77
2023/12/01 03:02:45;;;;;;;2.58;1.90;;;;;;;19.75;34.57;99342.00;2083502;28;20049;-76
2023/12/01 03:03:46;;;;;;;1.48;1.20;;;;;;;19.76;34.51;99335.38;2084721;28;20825;-76
2023/12/01 03:04:48;;;;;;;1.95;1.17;;;;;;;19.77;34.67;99334.22;2091342;28;20109;-75
2023/12/01 03:05:49;;;;;;;1.70;1.10;;;;;;;19.78;34.64;99338.53;2091077;28;20095;-76
2023/12/01 03:06:51;;;;;;;1.67;0.98;;;;;;;19.79;34.73;99337.34;2083282;28;20034;-75
2023/12/01 03:07:52;;;;;;;1.80;1.08;;;;;;;19.82;34.90;99342.06;2091435;28;20032;-76
2023/12/01 03:08:54;;;;;;;1.48;0.95;;;;;;;19.84;34.87;99337.03;2099407;28;20037;-75
2023/12/01 03:09:56;;;;;;;1.63;0.90;;;;;;;19.86;34.95;99338.25;2107927;28;20891;-75
2023/12/01 03:10:57;;;;;;;1.27;0.90;;;;;;;19.88;35.05;99333.19;2091118;28;20038;-76
2023/12/01 03:12:01;;;;;;;1.17;0.93;;;;;;;19.93;35.13;99332.09;2091189;28;20037;-75
2023/12/01 03:13:05;;;;;;;1.52;1.00;;;;;;;19.93;35.07;99323.91;2099616;28;20098;-75
2023/12/01 03:14:07;;;;;;;1.38;0.80;;;;;;;19.98;35.21;99331.75;2091264;28;20041;-75
2023/12/01 03:15:10;;;;;;;1.20;0.70;;;;;;;20.00;35.36;99329.44;2091708;28;20040;-76
2023/12/01 03:16:12;;;;;;;3.17;0.80;;;;;;;20.03;35.19;99336.88;2091450;28;20044;-75
2023/12/01 03:17:14;;;;;;;1.30;0.80;;;;;;;20.06;35.40;99324.44;2099674;28;20916;-75
2023/12/01 03:18:15;;;;;;;0.77;0.60;;;;;;;20.08;35.40;99322.94;2099389;28;20088;-76
2023/12/01 03:19:17;;;;;;;1.13;1.00;;;;;;;20.11;35.45;99329.56;2091475;28;20034;-76
2023/12/01 03:20:19;;;;;;;0.82;0.70;;;;;;;20.14;35.39;99332.34;2100054;28;20040;-76
2023/12/01 03:21:20;;;;;;;1.00;0.80;;;;;;;20.17;35.56;99332.75;2108124;28;20086;-76
2023/12/01 03:22:22;;;;;;;1.20;0.93;;;;;;;20.20;35.41;99329.28;2099389;28;20953;-77
2023/12/01 03:23:24;;;;;;;0.98;0.80;;;;;;;20.23;35.49;99320.34;2091191;28;20048;-77
2023/12/01 03:24:25;;;;;;;0.82;0.70;;;;;;;20.26;35.60;99328.56;2108075;28;20060;-77
2023/12/01 03:25:27;;;;;;;0.60;0.60;;;;;;;20.28;35.67;99326.25;2099229;28;20029;-77
2023/12/01 03:26:31;;;;;;;1.80;1.00;;;;;;;20.31;35.61;99332.91;2090847;28;20168;-77
2023/12/01 03:27:33;;;;;;;1.55;1.00;;;;;;;20.34;35.71;99334.91;2091520;28;20037;-76
2023/12/01 03:28:35;;;;;;;1.15;0.82;;;;;;;20.37;35.78;99334.16;2099480;28;20115;-75
2023/12/01 03:29:39;;;;;;;1.10;0.85;;;;;;;20.38;35.92;99320.13;2107429;28;20033;-76
2023/12/01 03:30:43;;;;;;;1.38;0.75;;;;;;;20.41;35.80;99324.03;2083948;28;20033;-76
2023/12/01 03:31:45;;;;;;;0.95;0.75;;;;;;;20.46;36.01;99328.38;2099788;28;20032;-76
2023/12/01 03:32:53;;;;;;;1.00;0.90;;;;;;;20.48;35.79;99317.88;2099194;28;20142;-76
2023/12/01 03:33:55;;;;;;;1.27;0.80;;;;;;;20.49;35.82;99317.50;2092059;28;20271;-75
2023/12/01 03:34:57;;;;;;;1.02;0.90;;;;;;;20.52;35.98;99316.78;2091007;28;20044;-78
2023/12/01 03:35:58;;;;;;;1.40;0.70;;;;;;;20.52;35.98;99319.53;2091508;28;20156;-76
2023/12/01 03:36:59;;;;;;;1.10;0.70;;;;;;;20.55;36.08;99310.56;2099209;28;20029;-76
2023/12/01 03:38:01;;;;;;;1.30;0.88;;;;;;;20.57;36.07;99316.44;2099521;28;20029;-78
2023/12/01 03:39:03;;;;;;;2.00;1.00;;;;;;;20.61;35.99;99316.47;2107566;28;20040;-78
2023/12/01 03:40:12;;;;;;;1.98;0.98;;;;;;;20.64;36.19;99323.13;2099627;28;20037;-80
2023/12/01 03:41:15;;;;;;;1.20;0.95;;;;;;;20.67;36.28;99319.63;2102330;28;20168;-79
2023/12/01 03:42:16;;;;;;;1.17;0.88;;;;;;;20.68;36.24;99322.00;2107596;28;20028;-80
2023/12/01 03:43:20;;;;;;;1.50;0.93;;;;;;;20.70;36.10;99321.63;2099592;28;20830;-78
2023/12/01 03:44:23;;;;;;;1.27;0.70;;;;;;;20.72;36.26;99317.34;2107666;28;20029;-77
2023/12/01 03:45:24;;;;;;;1.15;0.85;;;;;;;20.75;36.08;99324.78;2099393;28;20958;-76
2023/12/01 03:46:31;;;;;;;1.15;0.90;;;;;;;20.76;36.29;99317.38;2099910;28;20029;-78
2023/12/01 03:47:37;;;;;;;1.00;0.73;;;;;;;20.73;36.38;99318.91;2100059;28;20159;-78
2023/12/01 03:48:39;;;;;;;1.45;0.80;;;;;;;20.80;36.38;99318.97;2100366;28;20899;-78
2023/12/01 03:49:40;;;;;;;1.42;1.23;;;;;;;20.83;36.31;99322.91;2082469;28;20034;-74
2023/12/01 03:50:42;;;;;;;1.00;0.80;;;;;;;20.84;36.52;99319.03;2091404;28;20033;-75
2023/12/01 03:51:44;;;;;;;1.67;1.00;;;;;;;20.87;36.47;99325.66;2099362;28;20045;-79
2023/12/01 03:52:48;;;;;;;1.20;0.90;;;;;;;20.88;36.60;99325.28;2091218;28;20041;-78
2023/12/01 03:53:49;;;;;;;1.23;0.80;;;;;;;20.90;36.48;99317.50;2091108;28;20212;-75
2023/12/01 03:54:52;;;;;;;1.38;0.98;;;;;;;20.92;36.59;99317.91;2091278;28;20115;-74
2023/12/01 03:55:54;;;;;;;1.00;0.80;;;;;;;20.94;36.47;99315.59;2107498;28;20036;-74
2023/12/01 03:56:55;;;;;;;1.27;0.90;;;;;;;20.96;36.62;99320.66;2099365;28;20076;-74
2023/12/01 03:57:57;;;;;;;1.08;0.80;;;;;;;20.98;36.38;99329.28;2082401;28;20041;-74
2023/12/01 03:59:01;;;;;;;1.17;0.85;;;;;;;20.99;36.58;99325.38;2074441;28;20046;-75
2023/12/01 04:00:08;;;;;;;1.48;1.00;;;;;;;21.00;36.53;99327.72;2091244;28;20172;-76
2023/12/01 04:01:14;;;;;;;1.25;0.85;;;;;;;21.01;36.54;99321.09;2108001;28;20109;-75
2023/12/01 04:02:16;;;;;;;1.13;0.85;;;;;;;21.03;36.57;99321.50;2099288;28;20956;-75
2023/12/01 04:03:18;;;;;;;1.17;0.80;;;;;;;21.06;36.75;99328.19;2099794;28;20940;-75
2023/12/01 04:04:20;;;;;;;1.08;0.70;;;;;;;21.07;36.66;99324.28;2099050;28;20044;-74
2023/12/01 04:05:24;;;;;;;2.88;0.90;;;;;;;21.08;36.73;99325.03;2099181;28;20839;-76
2023/12/01 04:06:26;;;;;;;0.52;0.50;;;;;;;21.10;36.72;99323.50;2107321;28;20875;-76
2023/12/01 04:07:27;;;;;;;0.82;0.65;;;;;;;21.11;36.54;99321.56;2091202;28;20030;-76
2023/12/01 04:08:31;;;;;;;0.75;0.73;;;;;;;21.12;36.64;99329.34;2091159;28;20862;-77
2023/12/01 04:09:34;;;;;;;1.13;0.70;;;;;;;21.13;36.67;99321.97;2090857;28;20030;-76
2023/12/01 04:10:36;;;;;;;10.18;1.05;;;;;;;21.16;36.66;99323.94;2082952;28;20173;-78
2023/12/01 04:11:37;;;;;;;0.80;0.70;;;;;;;21.16;36.57;99318.47;2091403;28;20025;-78
2023/12/01 04:12:44;;;;;;;0.80;0.63;;;;;;;21.20;36.79;99324.75;2099200;28;20113;-78
2023/12/01 04:13:46;;;;;;;0.70;0.60;;;;;;;21.20;36.77;99314.59;2091621;28;20025;-80
2023/12/01 04:14:47;;;;;;;0.93;0.70;;;;;;;21.21;36.71;99321.63;2090719;28;20041;-79
2023/12/01 04:15:49;;;;;;;1.05;0.85;;;;;;;21.22;36.85;99320.47;2099648;28;20029;-79
2023/12/01 04:16:53;;;;;;;1.02;0.70;;;;;;;21.23;36.79;99316.56;2090522;28;20033;-79
2023/12/01 04:17:54;;;;;;;1.08;0.80;;;;;;;21.25;36.82;99313.47;2082966;28;20080;-79
2023/12/01 04:18:57;;;;;;;1.80;0.80;;;;;;;21.26;36.83;99324.00;2090855;28;20041;-79
2023/12/01 04:19:59;;;;;;;1.05;0.60;;;;;;;21.27;36.95;99311.13;2091653;28;20033;-79
2023/12/01 04:21:08;;;;;;;0.88;0.70;;;;;;;21.28;36.89;99321.69;2090839;28;20075;-78
2023/12/01 04:22:10;;;;;;;0.93;0.60;;;;;;;21.28;36.79;99320.91;2093438;28;20164;-78
2023/12/01 04:23:14;;;;;;;1.05;0.80;;;;;;;21.31;36.81;99320.13;2099335;28;20167;-79
2023/12/01 04:24:16;;;;;;;1.05;0.63;;;;;;;21.30;36.95;99315.81;2099867;28;20072;-78
2023/12/01 04:25:18;;;;;;;2.55;0.80;;;;;;;21.32;36.83;99315.47;2115854;28;20040;-78
2023/12/01 04:26:20;;;;;;;0.65;0.50;;;;;;;21.33;36.99;99317.81;2107782;28;20064;-79
2023/12/01 04:27:21;;;;;;;0.80;0.63;;;;;;;21.35;36.84;99320.16;2090797;28;20034;-79
2023/12/01 04:28:23;;;;;;;1.27;1.02;;;;;;;21.36;36.95;99322.53;2099349;28;20039;-79
2023/12/01 04:29:24;;;;;;;0.93;0.75;;;;;;;21.36;36.93;99322.53;2115576;28;20040;-78
2023/12/01 04:30:26;;;;;;;1.45;0.85;;;;;;;21.37;36.92;99317.84;2115934;28;20066;-78
2023/12/01 04:31:34;;;;;;;0.93;0.80;;;;;;;21.38;37.05;99325.69;2107342;28;20033;-78
2023/12/01 04:32:38;;;;;;;0.73;0.60;;;;;;;21.39;36.97;99319.03;2107927;28;20025;-78
2023/12/01 04:33:39;;;;;;;0.60;0.60;;;;;;;21.40;36.79;99325.28;2107989;28;20033;-78
2023/12/01 04:34:41;;;;;;;0.95;0.80;;;;;;;21.40;36.98;99317.88;2107463;28;20032;-78
2023/12/01 04:35:43;;;;;;;1.10;0.75;;;;;;;21.42;36.89;99326.47;2082515;28;20033;-78
2023/12/01 04:36:44;;;;;;;1.05;0.65;;;;;;;21.42;37.05;99318.28;2074483;28;21083;-78
2023/12/01 04:37:49;;;;;;;1.25;0.65;;;;;;;21.43;36.93;99317.09;2091056;28;20034;-78
2023/12/01 04:38:50;;;;;;;0.77;0.70;;;;;;;21.44;37.00;99318.69;2098463;28;20044;-78
2023/12/01 04:39:53;;;;;;;1.48;0.60;;;;;;;21.45;37.05;99322.22;2090505;28;20029;-78
2023/12/01 04:40:54;;;;;;;1.40;0.70;;;;;;;21.46;37.06;99323.75;2099249;28;20111;-79
2023/12/01 04:41:56;;;;;;;1.15;0.63;;;;;;;21.47;37.12;99323.41;2098696;28;20040;-79
2023/12/01 04:42:58;;;;;;;1.08;0.82;;;;;;;21.47;36.91;99323.41;2090832;28;21038;-78
2023/12/01 04:44:00;;;;;;;1.13;0.80;;;;;;;21.49;37.04;99325.75;2082385;28;20038;-77
2023/12/01 04:45:01;;;;;;;0.80;0.70;;;;;;;21.49;37.01;99323.78;2090926;28;20025;-77
2023/12/01 04:46:04;;;;;;;0.77;0.70;;;;;;;21.51;37.10;99318.72;2098704;28;20031;-77
2023/12/01 04:47:08;;;;;;;0.80;0.70;;;;;;;21.51;37.08;99318.72;2091571;28;20889;-77
2023/12/01 04:48:10;;;;;;;0.93;0.80;;;;;;;21.52;37.20;99317.53;2090261;28;20045;-77
2023/12/01 04:49:11;;;;;;;0.70;0.68;;;;;;;21.54;37.28;99327.34;2082095;28;20041;-77
2023/12/01 04:50:14;;;;;;;1.00;0.88;;;;;;;21.55;37.02;99324.22;2098962;28;20025;-77
2023/12/01 04:51:16;;;;;;;0.95;0.85;;;;;;;21.54;37.12;99316.41;2107445;28;20068;-77
2023/12/01 04:52:18;;;;;;;1.30;0.90;;;;;;;21.57;37.25;99318.38;2107248;28;20111;-76
2023/12/01 04:53:21;;;;;;;1.45;0.95;;;;;;;21.59;37.32;99318.75;2107517;28;20168;-77
2023/12/01 04:54:23;;;;;;;1.70;1.00;;;;;;;21.58;37.21;99317.19;2107010;28;20025;-76